Time;durP1;ratioP1;P1;durP2;ratioP2;P2;SDS_P1;SDS_P2;PMS_P1;PMS_P2;Temp;Humidity;BMP_temperature;BMP_pressure;BME280_temperature;BME280_humidity;BME280_pressure;Samples;Min_cycle;Max_cycle;Signal;HPM_P1;HPM_P2
2021/08/12 00:01:08;;;;;;;5.47;4.95;;;21.80;99.90;;;;;;4993986;28;20201;-77
2021/08/12 00:03:35;;;;;;;5.50;5.10;;;21.70;99.90;;;;;;4993590;28;20558;-77
2021/08/12 00:06:03;;;;;;;5.10;4.60;;;21.70;99.90;;;;;;4992204;28;20208;-77
2021/08/12 00:08:30;;;;;;;5.75;5.28;;;21.70;99.90;;;;;;4992123;28;20244;-77
2021/08/12 00:10:57;;;;;;;5.53;5.03;;;21.70;99.90;;;;;;4993139;28;20795;-77
2021/08/12 00:13:23;;;;;;;5.80;5.30;;;21.70;99.90;;;;;;4992986;28;20221;-78
2021/08/12 00:15:50;;;;;;;5.63;4.90;;;21.70;99.90;;;;;;4992268;28;20570;-78
2021/08/12 00:18:17;;;;;;;5.55;4.80;;;21.60;99.90;;;;;;4993237;28;20605;-78
2021/08/12 00:20:44;;;;;;;6.03;5.53;;;21.60;99.90;;;;;;4993841;28;20209;-78
2021/08/12 00:23:13;;;;;;;5.90;5.50;;;21.60;99.90;;;;;;4993252;28;20653;-77
2021/08/12 00:25:40;;;;;;;6.20;5.60;;;21.60;99.90;;;;;;4996479;28;20574;-78
2021/08/12 00:28:06;;;;;;;5.13;4.63;;;21.60;99.90;;;;;;4996586;28;20198;-78
2021/08/12 00:30:33;;;;;;;5.30;4.80;;;21.60;99.90;;;;;;4996575;28;20213;-78
2021/08/12 00:33:00;;;;;;;5.45;5.05;;;21.50;99.90;;;;;;4996438;28;20228;-77
2021/08/12 00:35:27;;;;;;;4.47;4.07;;;21.50;99.90;;;;;;4997065;28;20629;-77
2021/08/12 00:37:53;;;;;;;6.10;5.50;;;21.50;99.90;;;;;;4996472;28;20621;-77
2021/08/12 00:40:23;;;;;;;6.13;5.63;;;21.50;99.90;;;;;;4997411;28;20197;-78
2021/08/12 00:42:50;;;;;;;5.03;4.63;;;21.50;99.90;;;;;;4997522;28;20193;-78
2021/08/12 00:45:17;;;;;;;5.45;5.05;;;21.50;99.90;;;;;;4997067;28;20205;-77
2021/08/12 00:47:44;;;;;;;6.05;5.47;;;21.50;99.90;;;;;;4997781;28;20205;-78
2021/08/12 00:50:11;;;;;;;7.35;5.63;;;21.40;99.90;;;;;;4997817;28;20209;-78
2021/08/12 00:52:38;;;;;;;5.45;4.95;;;21.40;99.90;;;;;;4996423;28;20216;-78
2021/08/12 00:55:06;;;;;;;4.75;4.35;;;21.40;99.90;;;;;;4997072;28;20201;-78
2021/08/12 00:57:35;;;;;;;6.25;5.65;;;21.40;99.90;;;;;;4996418;28;20548;-78
2021/08/12 01:00:03;;;;;;;5.57;5.07;;;21.40;99.90;;;;;;4998574;28;20201;-78
2021/08/12 01:02:30;;;;;;;5.93;5.35;;;21.40;99.90;;;;;;4997647;28;20248;-78
2021/08/12 01:04:57;;;;;;;5.32;4.85;;;21.40;99.90;;;;;;4997392;28;20216;-78
2021/08/12 01:07:33;;;;;;;5.40;4.90;;;21.30;99.90;;;;;;4995977;28;20230;-78
2021/08/12 01:10:05;;;;;;;5.10;4.70;;;21.30;99.90;;;;;;4997135;28;20201;-77
2021/08/12 01:12:38;;;;;;;6.28;5.68;;;21.30;99.90;;;;;;4997563;28;20209;-78
2021/08/12 01:15:08;;;;;;;5.38;4.82;;;21.30;99.90;;;;;;4996441;28;20197;-77
2021/08/12 01:17:41;;;;;;;5.78;5.28;;;21.30;99.90;;;;;;4980999;28;20213;-78
2021/08/12 01:20:45;;;;;;;4.70;4.35;;;21.30;99.90;;;;;;4996234;28;20665;-78
2021/08/12 01:23:14;;;;;;;5.88;5.38;;;21.30;99.90;;;;;;4997346;28;20197;-78
2021/08/12 01:25:43;;;;;;;6.65;6.05;;;21.30;99.90;;;;;;4995528;28;20208;-77
2021/08/12 01:28:14;;;;;;;5.43;4.93;;;21.30;99.90;;;;;;4997207;28;20626;-78
2021/08/12 01:30:53;;;;;;;6.38;5.88;;;21.20;99.90;;;;;;4997017;28;20201;-78
2021/08/12 01:33:29;;;;;;;6.10;5.53;;;21.20;99.90;;;;;;4996707;28;20228;-77
2021/08/12 01:36:00;;;;;;;6.35;4.95;;;21.20;99.90;;;;;;4995479;28;20194;-78
2021/08/12 01:38:29;;;;;;;5.47;5.07;;;21.20;99.90;;;;;;4996877;28;20189;-78
2021/08/12 01:40:58;;;;;;;5.53;5.03;;;21.20;99.90;;;;;;4996883;28;20256;-77
2021/08/12 01:43:25;;;;;;;5.45;5.05;;;21.20;99.90;;;;;;4996113;28;20200;-77
2021/08/12 01:45:54;;;;;;;6.20;5.70;;;21.20;99.90;;;;;;4996888;28;20212;-77
2021/08/12 01:48:22;;;;;;;6.78;5.38;;;21.10;99.90;;;;;;4996060;28;20206;-78
2021/08/12 01:50:50;;;;;;;5.28;4.88;;;21.20;99.90;;;;;;4996476;28;20233;-78
2021/08/12 01:53:20;;;;;;;6.40;5.80;;;21.20;99.90;;;;;;4995626;28;20213;-77
2021/08/12 01:55:48;;;;;;;5.15;4.65;;;21.10;99.90;;;;;;4995113;28;20197;-77
2021/08/12 01:58:17;;;;;;;5.25;4.78;;;21.10;99.90;;;;;;4994655;28;20210;-77
2021/08/12 02:00:46;;;;;;;5.65;5.15;;;21.10;99.90;;;;;;4995100;28;20202;-77
2021/08/12 02:03:15;;;;;;;5.57;5.07;;;21.10;99.90;;;;;;4992981;28;20581;-78
2021/08/12 02:05:43;;;;;;;6.47;5.88;;;21.10;99.90;;;;;;4995260;28;20219;-78
2021/08/12 02:08:11;;;;;;;5.55;5.05;;;21.10;99.90;;;;;;4994953;28;20229;-78
2021/08/12 02:10:39;;;;;;;5.55;5.10;;;21.10;99.90;;;;;;4995326;28;20201;-78
2021/08/12 02:13:06;;;;;;;5.90;5.40;;;21.00;99.90;;;;;;4995320;28;20232;-78
2021/08/12 02:15:33;;;;;;;5.20;4.70;;;21.00;99.90;;;;;;4996147;28;20210;-78
2021/08/12 02:18:00;;;;;;;5.00;4.55;;;21.00;99.90;;;;;;4993823;28;20213;-77
2021/08/12 02:20:26;;;;;;;5.68;5.18;;;21.00;99.90;;;;;;4995102;28;20205;-78
2021/08/12 02:22:58;;;;;;;6.13;5.63;;;21.00;99.90;;;;;;4996051;28;20197;-78
2021/08/12 02:25:30;;;;;;;6.20;5.03;;;21.00;99.90;;;;;;4995762;28;20213;-78
2021/08/12 02:28:00;;;;;;;4.57;4.25;;;21.00;99.90;;;;;;4995697;28;20186;-78
2021/08/12 02:30:27;;;;;;;5.15;4.70;;;21.00;99.90;;;;;;4993795;28;20201;-77
2021/08/12 02:32:56;;;;;;;5.30;4.88;;;21.00;99.90;;;;;;4994912;28;20213;-78
2021/08/12 02:35:24;;;;;;;4.97;4.47;;;20.90;99.90;;;;;;4996025;28;20213;-77
2021/08/12 02:37:53;;;;;;;6.00;5.47;;;20.90;99.90;;;;;;4996083;28;20681;-78
2021/08/12 02:40:21;;;;;;;5.15;4.65;;;20.90;99.90;;;;;;4995062;28;20202;-78
2021/08/12 02:42:48;;;;;;;5.80;5.30;;;20.90;99.90;;;;;;4995504;28;20196;-78
2021/08/12 02:45:16;;;;;;;5.53;5.03;;;20.90;99.90;;;;;;4996442;28;20204;-78
2021/08/12 02:47:44;;;;;;;5.40;4.93;;;20.90;99.90;;;;;;4995265;28;20216;-78
2021/08/12 02:50:11;;;;;;;5.85;5.25;;;20.90;99.90;;;;;;4995011;28;20622;-78
2021/08/12 02:52:40;;;;;;;6.50;6.00;;;20.90;99.90;;;;;;4986270;28;20221;-79
2021/08/12 02:55:09;;;;;;;6.18;5.68;;;20.80;99.90;;;;;;4995511;28;20221;-78
2021/08/12 02:57:36;;;;;;;6.15;5.55;;;20.80;99.90;;;;;;4994578;28;20205;-78
2021/08/12 03:00:06;;;;;;;4.82;4.32;;;20.80;99.90;;;;;;4994115;28;20200;-77
2021/08/12 03:02:34;;;;;;;7.05;4.90;;;20.80;99.90;;;;;;4994768;28;20217;-77
2021/08/12 03:05:02;;;;;;;6.13;5.53;;;20.80;99.90;;;;;;4994576;28;20205;-78
2021/08/12 03:07:30;;;;;;;5.10;4.70;;;20.80;99.90;;;;;;4994968;28;20321;-78
2021/08/12 03:09:59;;;;;;;5.53;5.03;;;20.80;99.90;;;;;;4994283;28;20209;-78
2021/08/12 03:12:26;;;;;;;5.80;5.13;;;20.70;99.90;;;;;;4992875;28;20236;-77
2021/08/12 03:14:54;;;;;;;5.70;5.20;;;20.70;99.90;;;;;;4994095;28;20197;-78
2021/08/12 03:17:21;;;;;;;5.38;4.88;;;20.70;99.90;;;;;;4994135;28;20205;-77
2021/08/12 03:19:50;;;;;;;4.90;4.50;;;20.70;99.90;;;;;;4995041;28;20235;-77
2021/08/12 03:22:17;;;;;;;5.30;4.80;;;20.70;99.90;;;;;;4994952;28;20209;-77
2021/08/12 03:24:45;;;;;;;5.05;4.55;;;20.70;99.90;;;;;;4993973;28;20244;-78
2021/08/12 03:27:13;;;;;;;5.70;5.15;;;20.70;99.90;;;;;;4993549;28;20201;-78
2021/08/12 03:29:40;;;;;;;5.88;5.38;;;20.70;99.90;;;;;;4993460;28;20229;-77
2021/08/12 03:32:08;;;;;;;6.32;5.32;;;20.70;99.90;;;;;;4993632;28;20771;-78
2021/08/12 03:34:35;;;;;;;6.30;5.75;;;20.60;99.90;;;;;;4994233;28;20755;-77
2021/08/12 03:37:03;;;;;;;4.82;4.43;;;20.60;99.90;;;;;;4993923;28;20213;-77
2021/08/12 03:39:31;;;;;;;5.22;4.82;;;20.60;99.90;;;;;;4993631;28;20213;-77
2021/08/12 03:41:58;;;;;;;5.82;5.22;;;20.60;99.90;;;;;;4993378;28;20201;-77
2021/08/12 03:44:25;;;;;;;5.80;5.28;;;20.60;99.90;;;;;;4993633;28;20201;-77
2021/08/12 03:46:53;;;;;;;5.95;5.38;;;20.60;99.90;;;;;;4993122;28;20198;-77
2021/08/12 03:49:20;;;;;;;5.10;4.70;;;20.60;99.90;;;;;;4991424;28;20205;-77
2021/08/12 03:51:47;;;;;;;5.90;5.40;;;20.50;99.90;;;;;;4993513;28;20201;-77
2021/08/12 03:54:15;;;;;;;5.97;5.38;;;20.50;99.90;;;;;;4993271;28;20220;-77
2021/08/12 03:56:42;;;;;;;5.10;4.70;;;20.50;99.90;;;;;;4993405;28;20204;-78
2021/08/12 03:59:08;;;;;;;5.50;5.00;;;20.50;99.90;;;;;;4994688;28;20205;-77
2021/08/12 04:01:35;;;;;;;4.60;4.00;;;20.50;99.90;;;;;;4997226;28;20198;-77
2021/08/12 04:04:03;;;;;;;5.65;5.15;;;20.50;99.90;;;;;;4997037;28;20546;-77
2021/08/12 04:06:30;;;;;;;5.20;4.70;;;20.50;99.90;;;;;;4997430;28;20201;-77
2021/08/12 04:08:57;;;;;;;5.68;5.18;;;20.50;99.90;;;;;;4997034;28;20209;-77
2021/08/12 04:11:25;;;;;;;5.68;5.18;;;20.50;99.90;;;;;;4995880;28;20201;-77
2021/08/12 04:13:51;;;;;;;5.70;5.20;;;20.50;99.90;;;;;;4997052;28;20228;-77
2021/08/12 04:16:18;;;;;;;5.47;4.97;;;20.40;99.90;;;;;;4997247;28;20557;-77
2021/08/12 04:18:45;;;;;;;6.22;5.35;;;20.50;99.90;;;;;;4997200;28;20209;-77
2021/08/12 04:21:12;;;;;;;5.85;5.35;;;20.40;99.90;;;;;;4997986;28;20198;-78
2021/08/12 04:23:38;;;;;;;5.40;4.90;;;20.40;99.90;;;;;;4988846;28;20201;-77
2021/08/12 04:26:05;;;;;;;5.78;5.28;;;20.40;99.90;;;;;;4981983;28;20638;-77
2021/08/12 04:28:33;;;;;;;5.30;4.80;;;20.30;99.90;;;;;;4997036;28;20194;-77
2021/08/12 04:31:00;;;;;;;4.80;4.40;;;20.30;99.90;;;;;;4997054;28;20557;-77
2021/08/12 04:33:29;;;;;;;5.63;5.13;;;20.30;99.90;;;;;;4996487;28;20233;-77
2021/08/12 04:35:56;;;;;;;5.32;4.82;;;20.30;99.90;;;;;;4995752;28;20197;-76
2021/08/12 04:38:24;;;;;;;5.50;5.03;;;20.30;99.90;;;;;;4996318;28;20209;-77
2021/08/12 04:40:51;;;;;;;5.63;5.13;;;20.30;99.90;;;;;;4996671;28;20225;-77
2021/08/12 04:43:18;;;;;;;5.05;4.65;;;20.30;99.90;;;;;;4996554;28;20547;-77
2021/08/12 04:45:46;;;;;;;4.95;4.45;;;20.30;99.90;;;;;;4996990;28;20204;-78
2021/08/12 04:48:15;;;;;;;4.70;4.30;;;20.30;99.90;;;;;;4995705;28;20197;-77
2021/08/12 04:50:42;;;;;;;6.13;5.53;;;20.30;99.90;;;;;;4996371;28;20245;-78
2021/08/12 04:53:08;;;;;;;5.50;5.00;;;20.30;99.90;;;;;;4996302;28;20217;-76
2021/08/12 04:55:35;;;;;;;5.63;5.13;;;20.30;99.90;;;;;;4995775;28;20205;-76
2021/08/12 04:58:02;;;;;;;5.40;4.90;;;20.30;99.90;;;;;;4996193;28;20201;-77
2021/08/12 05:00:28;;;;;;;5.25;4.85;;;20.20;99.90;;;;;;4995254;28;20213;-77
2021/08/12 05:02:56;;;;;;;5.45;5.00;;;20.20;99.90;;;;;;4996055;28;20570;-77
2021/08/12 05:05:23;;;;;;;5.53;4.75;;;20.20;99.90;;;;;;4996171;28;20201;-77
2021/08/12 05:07:50;;;;;;;5.53;5.03;;;20.20;99.90;;;;;;4995611;28;20717;-77
2021/08/12 05:10:17;;;;;;;5.55;4.28;;;20.20;99.90;;;;;;4995644;28;20229;-77
2021/08/12 05:12:43;;;;;;;4.90;4.40;;;20.20;99.90;;;;;;4996229;28;20201;-77
2021/08/12 05:15:11;;;;;;;5.72;4.80;;;20.20;99.90;;;;;;4994002;28;20206;-77
2021/08/12 05:17:37;;;;;;;5.03;4.53;;;20.10;99.90;;;;;;4995705;28;20209;-77
2021/08/12 05:20:06;;;;;;;6.90;6.30;;;20.20;99.90;;;;;;4995806;28;20562;-77
2021/08/12 05:22:33;;;;;;;5.03;4.63;;;20.10;99.90;;;;;;4995749;28;20551;-77
2021/08/12 05:25:00;;;;;;;5.25;4.85;;;20.10;99.90;;;;;;4995065;28;20256;-77
2021/08/12 05:27:27;;;;;;;5.00;4.60;;;20.10;99.90;;;;;;4995815;28;20214;-77
2021/08/12 05:29:53;;;;;;;4.90;4.50;;;20.10;99.90;;;;;;4995219;28;20642;-76
2021/08/12 05:32:20;;;;;;;6.28;5.68;;;20.10;99.90;;;;;;4995494;28;20203;-76
2021/08/12 05:34:47;;;;;;;5.80;5.30;;;20.10;99.90;;;;;;4995540;28;20225;-76
2021/08/12 05:37:15;;;;;;;6.28;5.70;;;20.10;99.90;;;;;;4995375;28;20549;-76
2021/08/12 05:39:42;;;;;;;5.63;5.13;;;20.10;99.90;;;;;;4993473;28;20212;-76
2021/08/12 05:42:08;;;;;;;6.40;5.80;;;20.10;99.90;;;;;;4995208;28;20205;-77
2021/08/12 05:44:35;;;;;;;5.20;4.70;;;20.10;99.90;;;;;;4995557;28;20205;-77
2021/08/12 05:47:02;;;;;;;6.32;5.50;;;20.10;99.90;;;;;;4995535;28;20221;-77
2021/08/12 05:49:28;;;;;;;6.18;5.57;;;20.30;99.90;;;;;;4994091;28;20711;-77
2021/08/12 05:51:55;;;;;;;5.68;4.95;;;20.50;99.90;;;;;;4995339;28;20208;-77
2021/08/12 05:54:23;;;;;;;5.22;4.53;;;20.60;99.90;;;;;;4994678;28;20228;-77
2021/08/12 05:56:50;;;;;;;5.28;4.30;;;20.70;99.90;;;;;;4994722;28;20197;-77
2021/08/12 05:59:17;;;;;;;6.10;5.53;;;20.70;99.90;;;;;;4994681;28;20201;-76
2021/08/12 06:01:43;;;;;;;5.07;4.65;;;20.80;99.90;;;;;;4993772;28;20198;-76
2021/08/12 06:04:10;;;;;;;4.50;4.15;;;20.90;99.90;;;;;;4991332;28;20194;-77
2021/08/12 06:06:39;;;;;;;6.53;5.10;;;21.10;99.90;;;;;;4994761;28;20213;-76
2021/08/12 06:09:06;;;;;;;4.95;4.55;;;21.20;99.90;;;;;;4992845;28;20236;-76
2021/08/12 06:11:34;;;;;;;5.97;5.25;;;21.40;99.90;;;;;;4994886;28;20224;-76
2021/08/12 06:14:01;;;;;;;4.93;4.43;;;21.50;99.90;;;;;;4993923;28;20217;-77
2021/08/12 06:16:27;;;;;;;5.40;4.70;;;21.60;99.90;;;;;;4994367;28;20209;-76
2021/08/12 06:18:54;;;;;;;4.75;4.28;;;21.70;99.90;;;;;;4994507;28;20643;-76
2021/08/12 06:21:23;;;;;;;5.57;5.07;;;21.80;99.90;;;;;;4993272;28;20205;-75
2021/08/12 06:23:50;;;;;;;4.72;4.32;;;21.80;99.90;;;;;;4974897;28;20202;-76
2021/08/12 06:26:17;;;;;;;6.07;4.70;;;21.90;99.90;;;;;;4974954;28;20567;-76
2021/08/12 06:28:46;;;;;;;4.80;3.90;;;22.00;99.90;;;;;;4989708;28;20468;-76
2021/08/12 06:31:12;;;;;;;5.40;4.90;;;22.20;99.90;;;;;;4994175;28;20459;-76
2021/08/12 06:33:39;;;;;;;4.27;3.67;;;22.30;99.90;;;;;;4994261;28;20495;-76
2021/08/12 06:36:06;;;;;;;5.05;4.43;;;22.40;99.90;;;;;;4994012;28;20440;-76
2021/08/12 06:38:33;;;;;;;4.70;4.27;;;22.50;99.90;;;;;;4993874;28;20198;-77
2021/08/12 06:40:59;;;;;;;4.63;4.23;;;22.60;99.90;;;;;;4994380;28;20801;-76
2021/08/12 06:43:26;;;;;;;4.67;4.27;;;22.70;99.90;;;;;;4994684;28;20444;-76
2021/08/12 06:45:54;;;;;;;5.90;4.60;;;22.80;99.90;;;;;;4993922;28;20453;-76
2021/08/12 06:48:21;;;;;;;4.40;4.00;;;23.00;99.90;;;;;;4992998;28;20461;-76
2021/08/12 06:50:48;;;;;;;4.40;4.00;;;23.10;99.90;;;;;;4993822;28;20507;-76
2021/08/12 06:53:15;;;;;;;4.37;3.97;;;23.20;99.90;;;;;;4993917;28;20452;-76
2021/08/12 06:55:41;;;;;;;4.87;3.87;;;23.30;99.90;;;;;;4994259;28;20444;-76
2021/08/12 06:58:08;;;;;;;4.27;3.80;;;23.40;99.90;;;;;;4993439;28;20453;-76
2021/08/12 07:00:35;;;;;;;4.20;3.80;;;23.50;99.90;;;;;;4993775;28;20940;-76
2021/08/12 07:03:03;;;;;;;3.93;3.53;;;23.50;99.90;;;;;;4994043;28;20445;-76
2021/08/12 07:05:30;;;;;;;3.70;3.40;;;23.60;99.90;;;;;;4994389;28;20452;-77
2021/08/12 07:07:57;;;;;;;4.17;3.87;;;23.70;99.90;;;;;;4990347;28;20488;-77
2021/08/12 07:10:23;;;;;;;4.87;4.40;;;23.80;99.90;;;;;;4976529;28;20500;-78
2021/08/12 07:12:50;;;;;;;5.00;4.47;;;23.80;99.90;;;;;;4991208;28;20456;-78
2021/08/12 07:15:17;;;;;;;5.27;4.77;;;23.90;99.90;;;;;;5003188;28;20488;-77
2021/08/12 07:17:43;;;;;;;5.10;4.60;;;23.90;99.90;;;;;;4994439;28;20448;-78
2021/08/12 07:20:12;;;;;;;4.03;3.63;;;24.00;99.90;;;;;;4994448;28;20455;-78
2021/08/12 07:22:39;;;;;;;4.67;3.90;;;24.00;99.90;;;;;;4994548;28;20460;-78
2021/08/12 07:25:06;;;;;;;3.93;3.63;;;24.10;99.90;;;;;;4994420;28;20448;-77
2021/08/12 07:27:33;;;;;;;3.50;3.20;;;24.20;99.90;;;;;;4994636;28;20444;-79
2021/08/12 07:30:00;;;;;;;5.50;5.00;;;24.30;99.90;;;;;;4994633;28;20469;-77
2021/08/12 07:32:27;;;;;;;4.53;3.97;;;24.30;99.90;;;;;;4992287;28;20805;-78
2021/08/12 07:34:53;;;;;;;3.50;3.20;;;24.40;99.90;;;;;;4993648;28;20489;-77
2021/08/12 07:37:22;;;;;;;5.60;3.67;;;24.50;99.90;;;;;;4993897;28;20456;-78
2021/08/12 07:39:48;;;;;;;5.17;3.47;;;24.50;99.90;;;;;;4993809;28;20452;-78
2021/08/12 07:42:19;;;;;;;4.33;3.77;;;24.60;99.90;;;;;;4994346;28;20437;-78
2021/08/12 07:44:46;;;;;;;4.23;3.70;;;24.60;99.90;;;;;;4993951;28;20475;-78
2021/08/12 07:47:13;;;;;;;4.70;4.20;;;24.70;99.90;;;;;;4993359;28;20436;-77
2021/08/12 07:49:39;;;;;;;4.17;3.77;;;24.70;99.90;;;;;;4993880;28;20763;-78
2021/08/12 07:52:07;;;;;;;5.20;3.90;;;24.80;99.90;;;;;;4993284;28;20440;-77
2021/08/12 07:54:35;;;;;;;4.33;3.90;;;24.80;99.90;;;;;;4993067;28;20485;-78
2021/08/12 07:57:02;;;;;;;3.93;3.20;;;24.90;99.90;;;;;;4993504;28;20449;-78
2021/08/12 07:59:28;;;;;;;4.80;4.03;;;24.90;99.90;;;;;;4993402;28;20457;-79
2021/08/12 08:01:55;;;;;;;3.80;3.17;;;24.90;99.90;;;;;;4993915;28;20444;-77
2021/08/12 08:04:22;;;;;;;3.50;3.17;;;25.00;99.90;;;;;;4993627;28;20441;-81
2021/08/12 08:06:49;;;;;;;3.57;3.27;;;25.10;99.90;;;;;;5001977;28;20455;-80
2021/08/12 08:09:15;;;;;;;3.97;3.67;;;25.10;99.90;;;;;;5001164;28;20976;-80
2021/08/12 08:11:43;;;;;;;4.23;3.77;;;25.20;99.90;;;;;;4992215;28;20524;-78
2021/08/12 08:14:10;;;;;;;5.27;4.77;;;25.20;99.90;;;;;;4993526;28;20484;-78
2021/08/12 08:16:37;;;;;;;4.63;3.47;;;25.30;99.90;;;;;;4994222;28;20475;-79
2021/08/12 08:19:03;;;;;;;3.43;3.13;;;25.30;99.90;;;;;;4995678;28;20449;-78
2021/08/12 08:21:30;;;;;;;4.07;3.67;;;25.30;99.90;;;;;;4992906;28;20463;-78
2021/08/12 08:23:57;;;;;;;5.63;4.00;;;25.40;99.90;;;;;;4996193;28;20459;-77
2021/08/12 08:26:24;;;;;;;5.73;4.37;;;25.40;99.90;;;;;;4995464;28;20475;-78
2021/08/12 08:28:52;;;;;;;3.93;3.40;;;25.50;99.90;;;;;;4996746;28;20818;-78
2021/08/12 08:31:18;;;;;;;5.07;4.57;;;25.50;99.90;;;;;;4995672;28;20452;-78
2021/08/12 08:33:45;;;;;;;3.63;3.33;;;25.50;99.90;;;;;;4995466;28;20840;-78
2021/08/12 08:36:12;;;;;;;5.27;4.10;;;25.60;99.90;;;;;;4996183;28;20958;-78
2021/08/12 08:38:39;;;;;;;3.87;3.57;;;25.60;99.90;;;;;;4996471;28;20459;-78
2021/08/12 08:41:07;;;;;;;4.60;4.13;;;25.60;99.90;;;;;;4996362;28;20786;-78
2021/08/12 08:43:35;;;;;;;3.63;3.33;;;25.70;99.90;;;;;;4996523;28;20456;-78
2021/08/12 08:46:03;;;;;;;4.40;3.63;;;25.70;99.90;;;;;;4998895;28;20448;-78
2021/08/12 08:48:34;;;;;;;4.13;3.73;;;25.70;99.90;;;;;;4997866;28;20468;-78
2021/08/12 08:51:02;;;;;;;3.57;3.27;;;25.70;99.90;;;;;;4998220;28;20457;-79
2021/08/12 08:53:30;;;;;;;5.30;4.43;;;25.70;99.90;;;;;;4997833;28;20452;-78
2021/08/12 08:55:57;;;;;;;4.03;3.37;;;25.70;99.90;;;;;;4996831;28;20480;-77
2021/08/12 08:58:24;;;;;;;4.40;4.00;;;25.70;99.90;;;;;;4996995;28;20964;-78
2021/08/12 09:00:52;;;;;;;4.50;4.03;;;25.70;99.90;;;;;;4996654;28;20930;-78
2021/08/12 09:03:20;;;;;;;3.93;3.60;;;25.80;99.90;;;;;;4996611;28;20459;-77
2021/08/12 09:05:47;;;;;;;5.73;4.50;;;25.80;99.90;;;;;;4995944;28;20929;-78
2021/08/12 09:08:13;;;;;;;4.70;4.30;;;25.80;99.90;;;;;;4994877;28;20492;-77
2021/08/12 09:10:40;;;;;;;5.17;4.70;;;25.90;99.90;;;;;;4993953;28;20483;-77
2021/08/12 09:13:08;;;;;;;4.33;3.33;;;25.90;99.90;;;;;;4995361;28;20449;-77
2021/08/12 09:15:42;;;;;;;4.03;3.63;;;25.90;99.90;;;;;;4995962;28;20491;-77
2021/08/12 09:18:21;;;;;;;4.33;3.93;;;25.90;99.90;;;;;;4995532;28;20461;-77
2021/08/12 09:20:51;;;;;;;4.13;3.83;;;25.90;99.90;;;;;;4996337;28;20440;-77
2021/08/12 09:23:23;;;;;;;4.77;3.43;;;25.90;99.90;;;;;;4996003;28;20440;-76
2021/08/12 09:25:50;;;;;;;4.23;3.87;;;25.90;99.90;;;;;;4995438;28;20833;-76
2021/08/12 09:28:23;;;;;;;3.90;3.57;;;25.90;99.90;;;;;;4995903;28;20484;-76
2021/08/12 09:31:11;;;;;;;6.40;3.50;;;25.90;99.90;;;;;;4985905;28;20470;-76
2021/08/12 09:33:53;;;;;;;4.03;3.73;;;25.90;99.90;;;;;;4986174;28;20464;-76
2021/08/12 09:36:25;;;;;;;5.57;5.00;;;25.90;99.90;;;;;;4993784;28;20475;-76
2021/08/12 09:39:15;;;;;;;5.90;4.70;;;25.90;99.90;;;;;;4993058;28;20437;-76
2021/08/12 09:41:48;;;;;;;5.10;4.60;;;25.90;99.90;;;;;;4993960;28;20507;-76
2021/08/12 09:44:39;;;;;;;4.30;3.87;;;25.90;99.90;;;;;;4976402;28;20442;-76
2021/08/12 09:47:08;;;;;;;4.53;4.13;;;25.90;99.90;;;;;;4984843;28;20444;-76
2021/08/12 09:49:41;;;;;;;4.77;4.37;;;25.90;99.90;;;;;;4995471;28;20940;-76
2021/08/12 09:52:24;;;;;;;4.87;4.47;;;25.80;99.90;;;;;;4993950;28;20814;-77
2021/08/12 09:54:58;;;;;;;6.53;4.87;;;25.80;99.90;;;;;;4994875;28;20474;-77
2021/08/12 09:57:25;;;;;;;4.17;3.67;;;25.80;99.90;;;;;;4994599;28;20535;-76
2021/08/12 09:59:53;;;;;;;5.50;4.10;;;25.80;99.90;;;;;;4995253;28;20483;-77
2021/08/12 10:02:20;;;;;;;5.37;4.87;;;25.80;99.90;;;;;;4991778;28;20539;-77
2021/08/12 10:05:03;;;;;;;4.53;4.13;;;25.80;99.90;;;;;;4990124;28;20453;-76
2021/08/12 10:07:40;;;;;;;4.40;3.97;;;25.80;99.90;;;;;;4993369;28;20491;-76
2021/08/12 10:10:13;;;;;;;4.60;4.00;;;25.70;99.90;;;;;;4994368;28;20472;-77
2021/08/12 10:12:43;;;;;;;5.27;4.77;;;25.70;99.90;;;;;;4993421;28;22886;-78
2021/08/12 10:15:12;;;;;;;5.37;4.87;;;25.70;99.90;;;;;;4995593;28;20484;-78
2021/08/12 10:17:41;;;;;;;8.13;4.90;;;25.70;99.90;;;;;;4995316;28;20445;-77
2021/08/12 10:20:13;;;;;;;5.70;4.67;;;25.70;99.90;;;;;;4995317;28;20495;-77
2021/08/12 10:22:41;;;;;;;5.40;4.90;;;25.70;99.90;;;;;;4994252;28;20503;-77
2021/08/12 10:25:11;;;;;;;4.90;4.40;;;25.70;99.90;;;;;;4994635;28;20476;-77
2021/08/12 10:27:38;;;;;;;5.10;4.60;;;25.70;99.90;;;;;;4994550;28;20448;-78
2021/08/12 10:30:07;;;;;;;5.73;5.13;;;25.70;99.90;;;;;;4994809;28;20444;-77
2021/08/12 10:32:36;;;;;;;3.87;3.40;;;25.70;99.90;;;;;;4994832;28;20449;-77
2021/08/12 10:35:04;;;;;;;4.63;4.07;;;25.70;99.90;;;;;;4994563;28;20487;-76
2021/08/12 10:37:32;;;;;;;7.93;4.50;;;25.70;99.90;;;;;;4994399;28;20459;-77
2021/08/12 10:39:59;;;;;;;7.13;4.40;;;25.70;99.90;;;;;;4994568;28;20453;-77
2021/08/12 10:42:26;;;;;;;4.60;4.03;;;25.70;99.90;;;;;;4995681;28;20491;-78
2021/08/12 10:44:53;;;;;;;5.00;4.50;;;25.70;99.90;;;;;;4995711;28;20444;-78
2021/08/12 10:47:43;;;;;;;5.73;5.20;;;25.70;99.90;;;;;;4996569;28;20464;-78
2021/08/12 10:50:37;;;;;;;5.30;4.50;;;25.60;99.90;;;;;;4992090;28;20458;-79
2021/08/12 10:53:16;;;;;;;5.53;4.20;;;25.60;99.90;;;;;;4997849;28;20512;-81
2021/08/12 10:56:12;;;;;;;5.40;4.27;;;25.60;99.90;;;;;;4995091;28;21019;-77
2021/08/12 10:58:42;;;;;;;5.03;4.57;;;25.60;99.90;;;;;;4994283;28;20452;-78
2021/08/12 11:01:11;;;;;;;4.70;4.30;;;25.60;99.90;;;;;;4994354;28;20797;-78
2021/08/12 11:03:44;;;;;;;6.73;5.83;;;25.60;99.90;;;;;;4996211;28;20445;-79
2021/08/12 11:06:12;;;;;;;4.70;4.13;;;25.60;99.90;;;;;;4996349;28;20413;-78
2021/08/12 11:09:01;;;;;;;5.60;4.50;;;25.60;99.90;;;;;;4992550;28;21043;-77
2021/08/12 11:11:50;;;;;;;7.80;5.60;;;25.50;99.90;;;;;;4992495;28;20580;-78
2021/08/12 11:14:58;;;;;;;4.90;4.40;;;25.50;99.90;;;;;;4996896;28;20460;-78
2021/08/12 11:17:25;;;;;;;4.90;4.50;;;25.50;99.90;;;;;;4977386;28;20445;-79
2021/08/12 11:19:53;;;;;;;6.47;5.03;;;25.50;99.90;;;;;;4975493;28;20460;-77
2021/08/12 11:22:33;;;;;;;5.77;3.83;;;25.50;99.90;;;;;;4980332;28;20465;-77
2021/08/12 11:25:02;;;;;;;4.80;4.30;;;25.50;99.90;;;;;;4974273;28;20440;-77
2021/08/12 11:27:42;;;;;;;4.80;4.30;;;25.50;99.90;;;;;;4994223;28;20459;-77
2021/08/12 11:30:48;;;;;;;5.03;4.53;;;25.50;99.90;;;;;;4993941;28;20441;-78
2021/08/12 11:33:30;;;;;;;4.30;3.67;;;25.50;99.90;;;;;;4993511;28;20456;-77
2021/08/12 11:36:18;;;;;;;4.17;3.83;;;25.50;99.90;;;;;;4993643;28;20480;-77
2021/08/12 11:38:51;;;;;;;4.70;4.20;;;25.50;99.90;;;;;;4991927;28;20468;-77
2021/08/12 11:41:20;;;;;;;4.57;4.17;;;25.50;99.90;;;;;;4992764;28;20453;-77
2021/08/12 11:43:48;;;;;;;4.97;4.07;;;25.50;99.90;;;;;;4994069;28;20451;-77
2021/08/12 11:46:16;;;;;;;5.53;4.73;;;25.50;99.90;;;;;;4993993;28;20437;-78
2021/08/12 11:48:43;;;;;;;5.30;4.77;;;25.50;99.90;;;;;;4992901;28;20452;-77
2021/08/12 11:51:10;;;;;;;4.40;4.00;;;25.50;99.90;;;;;;4993642;28;20507;-76
2021/08/12 11:53:38;;;;;;;9.67;3.70;;;25.50;99.90;;;;;;4992235;28;20468;-76
2021/08/12 11:56:18;;;;;;;4.00;3.60;;;25.50;99.90;;;;;;4993185;28;20992;-76
2021/08/12 11:58:47;;;;;;;4.83;4.40;;;25.50;99.90;;;;;;4992382;28;20821;-76
2021/08/12 12:01:15;;;;;;;5.33;4.43;;;25.60;99.90;;;;;;4993490;28;20937;-76
2021/08/12 12:03:44;;;;;;;5.17;4.10;;;25.50;99.90;;;;;;4993362;28;20448;-76
2021/08/12 12:06:11;;;;;;;4.20;3.77;;;25.50;99.90;;;;;;4992766;28;20481;-76
2021/08/12 12:08:38;;;;;;;4.27;3.87;;;25.50;99.90;;;;;;4992317;28;20895;-77
2021/08/12 12:11:09;;;;;;;4.47;4.00;;;25.50;99.90;;;;;;4993428;28;20523;-78
2021/08/12 12:13:36;;;;;;;4.20;3.80;;;25.50;99.90;;;;;;4993873;28;20449;-78
2021/08/12 12:16:10;;;;;;;5.13;4.63;;;25.50;99.90;;;;;;4993974;28;20531;-78
2021/08/12 12:18:38;;;;;;;4.37;3.97;;;25.50;99.90;;;;;;4994292;28;20482;-78
2021/08/12 12:21:07;;;;;;;4.17;3.77;;;25.50;99.90;;;;;;4997899;28;20456;-77
2021/08/12 12:23:35;;;;;;;4.20;3.80;;;25.50;99.90;;;;;;4996560;28;20980;-78
2021/08/12 12:26:02;;;;;;;4.43;4.03;;;25.50;99.90;;;;;;4999139;28;20448;-78
2021/08/12 12:28:30;;;;;;;3.97;3.20;;;25.50;99.90;;;;;;5003140;28;20456;-77
2021/08/12 12:30:57;;;;;;;4.10;3.70;;;25.50;99.90;;;;;;4997374;28;20491;-78
2021/08/12 12:33:26;;;;;;;4.73;4.27;;;25.50;99.90;;;;;;4998704;28;20455;-78
2021/08/12 12:35:54;;;;;;;3.70;3.40;;;25.50;99.90;;;;;;4998084;28;20480;-79
2021/08/12 12:38:25;;;;;;;4.17;3.10;;;25.50;99.90;;;;;;5001737;28;20468;-78
2021/08/12 12:40:53;;;;;;;4.50;4.10;;;25.50;99.90;;;;;;4998144;28;20929;-78
2021/08/12 12:43:26;;;;;;;4.67;4.20;;;25.50;99.90;;;;;;4999023;28;20507;-78
2021/08/12 12:45:56;;;;;;;4.47;4.00;;;25.50;99.90;;;;;;4998947;28;20774;-78
2021/08/12 12:48:29;;;;;;;4.17;3.77;;;25.60;99.90;;;;;;4993984;28;20460;-78
2021/08/12 12:50:58;;;;;;;4.07;3.77;;;25.60;99.90;;;;;;4996470;28;20942;-77
2021/08/12 12:53:34;;;;;;;3.70;3.40;;;25.60;99.90;;;;;;4996575;28;20448;-78
2021/08/12 12:56:04;;;;;;;3.70;3.40;;;25.60;99.90;;;;;;4996166;28;20472;-77
2021/08/12 12:58:35;;;;;;;5.33;4.40;;;25.60;99.90;;;;;;4994700;28;21031;-78